Time;durP1;ratioP1;P1;durP2;ratioP2;P2;SDS_P1;SDS_P2;PMS_P1;PMS_P2;Temp;Humidity;BMP_temperature;BMP_pressure;BME280_temperature;BME280_humidity;BME280_pressure;Samples;Min_cycle;Max_cycle;Signal;HPM_P1;HPM_P2
2024/01/30 00:00:01;;;;;;;28.83;8.52;;;;;;;;;;4954335;28;20040;-60
2024/01/30 00:02:27;;;;;;;15.52;7.22;;;;;;;;;;4953129;29;20064;-59
2024/01/30 00:04:53;;;;;;;17.35;7.47;;;;;;;;;;4957313;29;20039;-60
2024/01/30 00:07:19;;;;;;;18.40;7.70;;;;;;;;;;4953545;28;20039;-60
2024/01/30 00:09:48;;;;;;;19.40;7.45;;;;;;;;;;4957718;28;20039;-60
2024/01/30 00:12:14;;;;;;;16.33;7.65;;;;;;;;;;4955697;28;20055;-60
2024/01/30 00:14:45;;;;;;;11.63;5.88;;;;;;;;;;4956277;28;20348;-60
2024/01/30 00:17:11;;;;;;;15.02;6.30;;;;;;;;;;4955249;28;20047;-59
2024/01/30 00:19:38;;;;;;;14.60;7.25;;;;;;;;;;4954707;28;20051;-59
2024/01/30 00:22:04;;;;;;;12.95;6.90;;;;;;;;;;4955398;28;20054;-60
2024/01/30 00:24:30;;;;;;;13.73;6.97;;;;;;;;;;4956855;28;20498;-59
2024/01/30 00:26:57;;;;;;;12.60;6.50;;;;;;;;;;4957580;28;20043;-59
2024/01/30 00:29:23;;;;;;;12.23;6.07;;;;;;;;;;4957363;28;20407;-59
2024/01/30 00:31:49;;;;;;;9.98;5.45;;;;;;;;;;4949294;28;20055;-59
2024/01/30 00:34:15;;;;;;;10.38;5.30;;;;;;;;;;4956816;29;20062;-59
2024/01/30 00:36:41;;;;;;;10.20;4.72;;;;;;;;;;4956752;28;20043;-58
2024/01/30 00:39:09;;;;;;;10.43;5.38;;;;;;;;;;4957970;28;20050;-59
2024/01/30 00:41:35;;;;;;;11.50;5.22;;;;;;;;;;4956326;29;20050;-59
2024/01/30 00:44:01;;;;;;;9.40;4.95;;;;;;;;;;4955415;28;20047;-59
2024/01/30 00:46:27;;;;;;;10.32;5.30;;;;;;;;;;4956136;29;20531;-59
2024/01/30 00:48:53;;;;;;;9.98;5.50;;;;;;;;;;4953763;29;20039;-59
2024/01/30 00:51:19;;;;;;;13.52;5.78;;;;;;;;;;4957474;28;20450;-58
2024/01/30 00:53:45;;;;;;;10.20;5.43;;;;;;;;;;4955943;28;20039;-59
2024/01/30 00:56:11;;;;;;;10.95;5.75;;;;;;;;;;4957481;28;20051;-59
2024/01/30 00:58:38;;;;;;;10.18;5.53;;;;;;;;;;4951639;28;20047;-59
2024/01/30 01:01:04;;;;;;;11.00;5.47;;;;;;;;;;4954440;28;20051;-60
2024/01/30 01:03:30;;;;;;;8.95;5.65;;;;;;;;;;4949453;28;20051;-59
2024/01/30 01:05:56;;;;;;;11.65;5.80;;;;;;;;;;4953169;28;20038;-58
2024/01/30 01:08:22;;;;;;;10.07;5.40;;;;;;;;;;4953822;28;20051;-59
2024/01/30 01:10:48;;;;;;;9.05;5.43;;;;;;;;;;4951743;29;20039;-59
2024/01/30 01:13:14;;;;;;;14.30;6.20;;;;;;;;;;4951862;28;20039;-60
2024/01/30 01:15:40;;;;;;;12.48;6.07;;;;;;;;;;4952302;29;20050;-59
2024/01/30 01:18:06;;;;;;;11.80;6.07;;;;;;;;;;4954299;29;20523;-59
2024/01/30 01:20:32;;;;;;;9.05;6.10;;;;;;;;;;4953313;29;20054;-60
2024/01/30 01:22:59;;;;;;;10.18;5.85;;;;;;;;;;4952506;28;20496;-60
2024/01/30 01:25:25;;;;;;;10.95;5.72;;;;;;;;;;4953916;28;20039;-60
2024/01/30 01:27:52;;;;;;;11.63;6.13;;;;;;;;;;4947860;29;20043;-60
2024/01/30 01:30:21;;;;;;;9.65;5.72;;;;;;;;;;4953362;29;20051;-60
2024/01/30 01:32:54;;;;;;;10.00;5.50;;;;;;;;;;4948738;28;20039;-59
2024/01/30 01:35:27;;;;;;;11.07;5.60;;;;;;;;;;4949350;29;20054;-60
2024/01/30 01:37:58;;;;;;;10.20;5.65;;;;;;;;;;4953715;28;20478;-60
2024/01/30 01:40:24;;;;;;;11.82;5.95;;;;;;;;;;4953157;29;20031;-60
2024/01/30 01:42:52;;;;;;;11.82;5.68;;;;;;;;;;4946835;28;20051;-60
2024/01/30 01:45:19;;;;;;;11.27;6.30;;;;;;;;;;4953703;28;20503;-60
2024/01/30 01:47:49;;;;;;;9.43;5.88;;;;;;;;;;4952302;28;20050;-59
2024/01/30 01:50:21;;;;;;;;;;;;;;;;;;4949022;28;20052;-60
2024/01/30 01:52:51;;;;;;;10.02;4.93;;;;;;;;;;4951710;29;20441;-60
2024/01/30 01:55:25;;;;;;;8.90;5.05;;;;;;;;;;4952751;29;20035;-61
2024/01/30 01:57:52;;;;;;;10.85;5.10;;;;;;;;;;4950361;29;20038;-60
2024/01/30 02:00:19;;;;;;;9.38;5.45;;;;;;;;;;4953429;29;20039;-60
2024/01/30 02:02:46;;;;;;;6.10;3.80;;;;;;;;;;4951683;29;20090;-59
2024/01/30 02:05:14;;;;;;;6.70;3.92;;;;;;;;;;4951756;28;20055;-59
2024/01/30 02:07:40;;;;;;;11.10;4.22;;;;;;;;;;4949577;29;20419;-60
2024/01/30 02:10:09;;;;;;;7.55;4.20;;;;;;;;;;4949688;28;20047;-60
2024/01/30 02:12:35;;;;;;;6.28;3.70;;;;;;;;;;4950166;29;20044;-60
2024/01/30 02:15:01;;;;;;;7.00;3.47;;;;;;;;;;4952877;28;20043;-60
2024/01/30 02:17:27;;;;;;;5.93;3.80;;;;;;;;;;4951181;28;20055;-59
2024/01/30 02:19:53;;;;;;;6.80;3.70;;;;;;;;;;4952363;29;20050;-60
2024/01/30 02:22:20;;;;;;;6.00;3.40;;;;;;;;;;4948714;29;20039;-60
2024/01/30 02:24:46;;;;;;;8.20;3.97;;;;;;;;;;4949685;29;20043;-59
2024/01/30 02:27:13;;;;;;;7.30;4.03;;;;;;;;;;4946376;29;20059;-59
2024/01/30 02:29:39;;;;;;;6.97;3.97;;;;;;;;;;4951117;29;20042;-59
2024/01/30 02:32:06;;;;;;;11.60;4.15;;;;;;;;;;4949325;29;20042;-59
2024/01/30 02:34:32;;;;;;;6.35;3.80;;;;;;;;;;4949006;29;20054;-59
2024/01/30 02:36:58;;;;;;;7.53;4.10;;;;;;;;;;4952482;29;20403;-59
2024/01/30 02:39:24;;;;;;;5.30;3.17;;;;;;;;;;4951194;28;20123;-60
2024/01/30 02:41:50;;;;;;;6.38;3.47;;;;;;;;;;4950782;28;20047;-59
2024/01/30 02:44:16;;;;;;;6.85;3.95;;;;;;;;;;4952679;28;20521;-58
2024/01/30 02:46:42;;;;;;;6.88;4.10;;;;;;;;;;4950398;29;20039;-59
2024/01/30 02:49:08;;;;;;;7.82;5.00;;;;;;;;;;4950980;29;20042;-60
2024/01/30 02:51:34;;;;;;;5.65;3.75;;;;;;;;;;4950626;28;20414;-60
2024/01/30 02:54:00;;;;;;;8.73;4.40;;;;;;;;;;4952067;29;20043;-59
2024/01/30 02:56:26;;;;;;;6.82;3.72;;;;;;;;;;4951564;29;20039;-59
2024/01/30 02:58:52;;;;;;;7.18;3.90;;;;;;;;;;4951715;29;20047;-59
2024/01/30 03:01:20;;;;;;;8.30;4.00;;;;;;;;;;4950729;28;20094;-58
2024/01/30 03:03:46;;;;;;;7.00;4.13;;;;;;;;;;4951096;28;20047;-59
2024/01/30 03:06:12;;;;;;;8.20;4.13;;;;;;;;;;4949334;28;20058;-59
2024/01/30 03:08:39;;;;;;;5.00;3.30;;;;;;;;;;4950669;28;20047;-59
2024/01/30 03:11:05;;;;;;;6.32;3.13;;;;;;;;;;4934627;29;20418;-59
2024/01/30 03:13:31;;;;;;;6.45;3.35;;;;;;;;;;4952035;28;20522;-59
2024/01/30 03:15:57;;;;;;;7.65;3.80;;;;;;;;;;4949428;29;20047;-59
2024/01/30 03:18:23;;;;;;;6.85;3.70;;;;;;;;;;4949659;28;20046;-59
2024/01/30 03:20:50;;;;;;;7.25;3.75;;;;;;;;;;4951568;29;20047;-59
2024/01/30 03:23:16;;;;;;;7.13;2.95;;;;;;;;;;4947719;29;20047;-59
2024/01/30 03:25:42;;;;;;;6.68;2.83;;;;;;;;;;4950964;29;20549;-59
2024/01/30 03:28:08;;;;;;;5.35;3.08;;;;;;;;;;4946811;29;20403;-59
2024/01/30 03:30:35;;;;;;;6.53;3.38;;;;;;;;;;4949366;28;20039;-59
2024/01/30 03:33:01;;;;;;;5.18;2.95;;;;;;;;;;4946766;28;20392;-59
2024/01/30 03:35:27;;;;;;;5.35;3.53;;;;;;;;;;4951285;29;20046;-59
2024/01/30 03:37:53;;;;;;;4.90;3.08;;;;;;;;;;4951864;28;20051;-60
2024/01/30 03:40:19;;;;;;;6.28;2.97;;;;;;;;;;4950854;29;20054;-59
2024/01/30 03:42:45;;;;;;;6.78;3.55;;;;;;;;;;4948851;28;20525;-59
2024/01/30 03:45:11;;;;;;;6.60;3.65;;;;;;;;;;4950450;29;20043;-61
2024/01/30 03:47:37;;;;;;;7.43;3.72;;;;;;;;;;4950896;29;20050;-59
2024/01/30 03:50:04;;;;;;;6.32;3.53;;;;;;;;;;4945741;29;20035;-60
2024/01/30 03:52:30;;;;;;;6.65;3.47;;;;;;;;;;4951859;28;20047;-59
2024/01/30 03:54:56;;;;;;;7.07;3.53;;;;;;;;;;4950206;28;20630;-59
2024/01/30 03:57:23;;;;;;;8.48;3.92;;;;;;;;;;4951567;28;20031;-60
2024/01/30 03:59:49;;;;;;;7.13;3.55;;;;;;;;;;4950078;28;20051;-59
2024/01/30 04:02:15;;;;;;;6.90;4.30;;;;;;;;;;4949311;28;20047;-59
2024/01/30 04:04:41;;;;;;;7.72;4.03;;;;;;;;;;4947858;29;20055;-59
2024/01/30 04:07:07;;;;;;;8.93;4.00;;;;;;;;;;4951519;28;20051;-58
2024/01/30 04:09:33;;;;;;;9.27;3.08;;;;;;;;;;4949721;29;20039;-59
2024/01/30 04:11:59;;;;;;;7.05;3.55;;;;;;;;;;4947166;29;20035;-58
2024/01/30 04:14:25;;;;;;;6.88;3.80;;;;;;;;;;4951409;29;20076;-60
2024/01/30 04:16:51;;;;;;;7.55;3.33;;;;;;;;;;4944006;28;20395;-58
2024/01/30 04:19:18;;;;;;;4.20;2.70;;;;;;;;;;4948108;28;20051;-59
2024/01/30 04:21:44;;;;;;;5.43;3.00;;;;;;;;;;4948790;28;20043;-58
2024/01/30 04:24:10;;;;;;;6.03;2.60;;;;;;;;;;4946946;29;20040;-60
2024/01/30 04:26:36;;;;;;;6.18;2.83;;;;;;;;;;4948870;29;20058;-59
2024/01/30 04:29:02;;;;;;;4.40;2.70;;;;;;;;;;4949871;28;20059;-58
2024/01/30 04:31:28;;;;;;;4.57;2.97;;;;;;;;;;4950156;28;20495;-59
2024/01/30 04:33:54;;;;;;;6.28;2.97;;;;;;;;;;4951247;28;20596;-59
2024/01/30 04:36:21;;;;;;;4.78;2.70;;;;;;;;;;4953522;28;20058;-59
2024/01/30 04:38:47;;;;;;;4.57;2.70;;;;;;;;;;4953825;29;20062;-59
2024/01/30 04:41:13;;;;;;;5.32;2.60;;;;;;;;;;4951436;28;20054;-59
2024/01/30 04:43:39;;;;;;;5.07;2.83;;;;;;;;;;4953230;29;20044;-59
2024/01/30 04:46:05;;;;;;;6.50;3.05;;;;;;;;;;4952577;29;20050;-61
2024/01/30 04:48:31;;;;;;;5.10;2.88;;;;;;;;;;4952707;29;20066;-60
2024/01/30 04:50:58;;;;;;;7.60;3.35;;;;;;;;;;4952358;29;20038;-60
2024/01/30 04:53:24;;;;;;;8.68;4.20;;;;;;;;;;4948244;28;20056;-60
2024/01/30 04:55:50;;;;;;;7.30;3.53;;;;;;;;;;4952397;28;20078;-59
2024/01/30 04:58:16;;;;;;;5.55;2.90;;;;;;;;;;4954052;28;20124;-60
2024/01/30 05:00:43;;;;;;;18.38;8.23;;;;;;;;;;4951180;29;20414;-59
2024/01/30 05:03:09;;;;;;;16.00;7.30;;;;;;;;;;4950884;29;20054;-60
2024/01/30 05:05:35;;;;;;;8.15;4.30;;;;;;;;;;4952059;29;20031;-58
2024/01/30 05:08:01;;;;;;;12.30;5.15;;;;;;;;;;4947452;28;20043;-60
2024/01/30 05:10:28;;;;;;;7.47;3.70;;;;;;;;;;4952230;28;20034;-61
2024/01/30 05:12:54;;;;;;;13.30;5.95;;;;;;;;;;4950302;28;20067;-60
2024/01/30 05:15:20;;;;;;;9.57;5.10;;;;;;;;;;4950545;28;20046;-60
2024/01/30 05:17:46;;;;;;;11.15;6.50;;;;;;;;;;4952519;28;20039;-60
2024/01/30 05:20:13;;;;;;;8.65;5.57;;;;;;;;;;4947406;29;20051;-60
2024/01/30 05:22:44;;;;;;;8.13;4.97;;;;;;;;;;4951082;29;20051;-60
2024/01/30 05:25:14;;;;;;;10.35;5.13;;;;;;;;;;4952042;29;20031;-60
2024/01/30 05:27:40;;;;;;;8.23;5.35;;;;;;;;;;4939855;28;20416;-60
2024/01/30 05:30:07;;;;;;;13.50;5.03;;;;;;;;;;4953886;29;20407;-61
2024/01/30 05:32:33;;;;;;;12.75;6.28;;;;;;;;;;4951158;28;20047;-60
2024/01/30 05:34:59;;;;;;;12.07;7.03;;;;;;;;;;4952831;28;20442;-60
2024/01/30 05:37:25;;;;;;;15.43;6.70;;;;;;;;;;4951872;29;20047;-60
2024/01/30 05:39:51;;;;;;;16.60;8.50;;;;;;;;;;4951868;29;20043;-60
2024/01/30 05:42:18;;;;;;;23.52;11.32;;;;;;;;;;4953223;29;20050;-60
2024/01/30 05:44:44;;;;;;;16.85;7.95;;;;;;;;;;4950460;28;20047;-60
2024/01/30 05:47:10;;;;;;;15.77;7.95;;;;;;;;;;4949337;28;20051;-60
2024/01/30 05:49:36;;;;;;;14.35;8.18;;;;;;;;;;4946109;28;20055;-60
2024/01/30 05:52:03;;;;;;;15.18;7.47;;;;;;;;;;4946776;28;20035;-60
2024/01/30 05:54:29;;;;;;;12.45;7.05;;;;;;;;;;4948982;28;20142;-59
2024/01/30 05:56:56;;;;;;;16.52;8.85;;;;;;;;;;4952659;28;20411;-60
2024/01/30 05:59:22;;;;;;;12.32;8.05;;;;;;;;;;4947924;28;20387;-60
2024/01/30 06:01:48;;;;;;;18.48;9.20;;;;;;;;;;4951669;28;20054;-60
2024/01/30 06:04:15;;;;;;;20.83;9.63;;;;;;;;;;4950256;28;20415;-60
2024/01/30 06:06:41;;;;;;;18.17;9.32;;;;;;;;;;4948368;28;20055;-60
2024/01/30 06:09:09;;;;;;;14.73;8.50;;;;;;;;;;4953082;28;20047;-60
2024/01/30 06:11:35;;;;;;;13.07;8.00;;;;;;;;;;4951709;28;20043;-59
2024/01/30 06:14:01;;;;;;;16.40;8.75;;;;;;;;;;4952895;28;20054;-59
2024/01/30 06:16:29;;;;;;;17.85;9.55;;;;;;;;;;4949025;28;20574;-60
2024/01/30 06:18:56;;;;;;;21.38;11.00;;;;;;;;;;4950342;28;20031;-58
2024/01/30 06:21:23;;;;;;;24.75;10.55;;;;;;;;;;4953484;28;20038;-60
2024/01/30 06:23:49;;;;;;;20.02;9.55;;;;;;;;;;4948917;28;20050;-58
2024/01/30 06:26:15;;;;;;;18.23;9.23;;;;;;;;;;4950185;28;20058;-58
2024/01/30 06:28:41;;;;;;;21.52;9.70;;;;;;;;;;4953111;28;20519;-57
2024/01/30 06:31:07;;;;;;;21.70;11.43;;;;;;;;;;4954457;28;20053;-59
2024/01/30 06:33:34;;;;;;;22.60;12.32;;;;;;;;;;4951879;28;20491;-58
2024/01/30 06:36:00;;;;;;;18.60;10.02;;;;;;;;;;4950277;28;20036;-59
2024/01/30 06:38:26;;;;;;;18.50;10.43;;;;;;;;;;4954589;28;20455;-60
2024/01/30 06:40:52;;;;;;;15.70;8.23;;;;;;;;;;4951445;28;20380;-58
2024/01/30 06:43:18;;;;;;;17.33;8.82;;;;;;;;;;4954466;28;20046;-59
2024/01/30 06:45:44;;;;;;;16.55;8.10;;;;;;;;;;4952081;28;20043;-58
2024/01/30 06:48:10;;;;;;;14.77;7.93;;;;;;;;;;4956473;28;20046;-59
2024/01/30 06:50:36;;;;;;;12.02;7.28;;;;;;;;;;4954184;28;20035;-59
2024/01/30 06:53:03;;;;;;;15.15;8.48;;;;;;;;;;4954214;28;20058;-58
2024/01/30 06:55:29;;;;;;;15.85;7.65;;;;;;;;;;4954410;28;20407;-58
2024/01/30 06:57:55;;;;;;;18.08;8.60;;;;;;;;;;4949282;28;20050;-58
2024/01/30 07:00:22;;;;;;;49.58;17.42;;;;;;;;;;4950192;28;20055;-58
2024/01/30 07:02:48;;;;;;;104.20;29.00;;;;;;;;;;4948119;28;20039;-58
2024/01/30 07:05:15;;;;;;;92.32;27.08;;;;;;;;;;4947920;28;20418;-59
2024/01/30 07:07:41;;;;;;;60.42;19.83;;;;;;;;;;4949807;28;21592;-59
2024/01/30 07:10:07;;;;;;;58.90;21.98;;;;;;;;;;4952172;28;20054;-58
2024/01/30 07:12:34;;;;;;;53.35;19.40;;;;;;;;;;4948454;28;20062;-59
2024/01/30 07:15:00;;;;;;;45.28;18.05;;;;;;;;;;4949136;28;20051;-58
2024/01/30 07:17:26;;;;;;;40.38;15.95;;;;;;;;;;4952087;28;20050;-58
2024/01/30 07:19:52;;;;;;;28.85;12.85;;;;;;;;;;4948375;28;20047;-59
2024/01/30 07:22:18;;;;;;;25.98;11.40;;;;;;;;;;4946230;28;20063;-59
2024/01/30 07:24:47;;;;;;;30.30;13.52;;;;;;;;;;4943863;28;20146;-58
2024/01/30 07:27:13;;;;;;;36.03;15.65;;;;;;;;;;4950423;28;20051;-59
2024/01/30 07:29:39;;;;;;;35.45;15.45;;;;;;;;;;4950142;28;20039;-59
2024/01/30 07:32:05;;;;;;;42.35;16.95;;;;;;;;;;4952939;28;20043;-59
2024/01/30 07:34:32;;;;;;;63.28;25.38;;;;;;;;;;4949605;28;20487;-58
2024/01/30 07:36:58;;;;;;;65.93;24.90;;;;;;;;;;4950550;28;20040;-60
2024/01/30 07:39:24;;;;;;;70.80;26.73;;;;;;;;;;4947348;28;20058;-59
2024/01/30 07:41:50;;;;;;;59.58;23.13;;;;;;;;;;4948684;28;20047;-58
2024/01/30 07:44:16;;;;;;;28.20;12.25;;;;;;;;;;4949056;28;20058;-58
2024/01/30 07:46:42;;;;;;;23.98;9.98;;;;;;;;;;4954569;28;20038;-59
2024/01/30 07:49:08;;;;;;;17.85;8.30;;;;;;;;;;4954761;28;20051;-59
2024/01/30 07:51:34;;;;;;;18.50;8.60;;;;;;;;;;4949842;28;20035;-59
2024/01/30 07:54:00;;;;;;;16.15;7.85;;;;;;;;;;4953768;28;20043;-59
2024/01/30 07:56:26;;;;;;;12.27;6.40;;;;;;;;;;4949682;28;20043;-58
2024/01/30 07:58:53;;;;;;;15.43;6.75;;;;;;;;;;4949661;28;20055;-59
2024/01/30 08:01:19;;;;;;;14.55;5.97;;;;;;;;;;4949801;28;20059;-59
2024/01/30 08:03:45;;;;;;;11.15;6.55;;;;;;;;;;4951414;28;20031;-60
2024/01/30 08:06:11;;;;;;;11.55;6.50;;;;;;;;;;4948266;28;20054;-60
2024/01/30 08:08:37;;;;;;;15.73;6.68;;;;;;;;;;4954270;28;20055;-60
2024/01/30 08:11:04;;;;;;;13.02;7.47;;;;;;;;;;4937394;29;20042;-58
2024/01/30 08:13:30;;;;;;;16.98;8.15;;;;;;;;;;4955682;28;20047;-58
2024/01/30 08:15:56;;;;;;;12.52;7.80;;;;;;;;;;4954687;28;20039;-58
2024/01/30 08:18:31;;;;;;;21.15;9.40;;;;;;;;;;4955393;28;20066;-58
2024/01/30 08:20:57;;;;;;;12.05;6.88;;;;;;;;;;4954368;28;20055;-59
2024/01/30 08:23:24;;;;;;;16.27;8.23;;;;;;;;;;4953509;28;20035;-58
2024/01/30 08:25:50;;;;;;;14.20;8.65;;;;;;;;;;4953929;28;20043;-59
2024/01/30 08:28:16;;;;;;;18.73;9.88;;;;;;;;;;4956956;28;20050;-59
2024/01/30 08:30:43;;;;;;;16.65;9.18;;;;;;;;;;4954148;28;20027;-59
2024/01/30 08:33:09;;;;;;;21.15;10.85;;;;;;;;;;4952626;28;20651;-59
2024/01/30 08:35:39;;;;;;;29.90;13.63;;;;;;;;;;4955679;28;20045;-58
2024/01/30 08:38:05;;;;;;;38.50;17.88;;;;;;;;;;4952641;28;20055;-59
2024/01/30 08:40:31;;;;;;;60.28;23.05;;;;;;;;;;4953007;28;20415;-59
2024/01/30 08:42:57;;;;;;;59.20;23.52;;;;;;;;;;4950381;28;20051;-59
2024/01/30 08:45:23;;;;;;;48.92;22.63;;;;;;;;;;4950202;28;20043;-58
2024/01/30 08:47:50;;;;;;;34.25;17.98;;;;;;;;;;4958313;28;20046;-59
2024/01/30 08:50:16;;;;;;;30.75;16.73;;;;;;;;;;4958270;28;20055;-59
2024/01/30 08:52:42;;;;;;;32.90;16.35;;;;;;;;;;4957701;28;20051;-58
2024/01/30 08:55:09;;;;;;;70.10;31.92;;;;;;;;;;4956388;28;20050;-59
2024/01/30 08:57:35;;;;;;;39.10;16.95;;;;;;;;;;4952425;28;20047;-59
2024/01/30 09:00:06;;;;;;;44.65;20.92;;;;;;;;;;4950839;28;20043;-58
2024/01/30 09:02:34;;;;;;;47.95;22.33;;;;;;;;;;4951175;28;20046;-59
2024/01/30 09:05:00;;;;;;;43.78;20.90;;;;;;;;;;4954391;28;20062;-59
2024/01/30 09:07:26;;;;;;;30.13;14.18;;;;;;;;;;4952075;28;20058;-60
2024/01/30 09:09:52;;;;;;;29.73;15.70;;;;;;;;;;4954490;28;20055;-59
2024/01/30 09:12:18;;;;;;;27.48;14.32;;;;;;;;;;4952850;28;20050;-59
2024/01/30 09:14:44;;;;;;;23.95;11.75;;;;;;;;;;4954475;28;20046;-59
2024/01/30 09:17:10;;;;;;;20.73;10.88;;;;;;;;;;4955004;28;20531;-60
2024/01/30 09:19:37;;;;;;;22.08;10.35;;;;;;;;;;4952211;28;20388;-59
2024/01/30 09:22:03;;;;;;;16.05;7.78;;;;;;;;;;4953658;28;20047;-59
2024/01/30 09:24:29;;;;;;;8.65;4.32;;;;;;;;;;4957303;28;20069;-59
2024/01/30 09:26:55;;;;;;;6.47;3.65;;;;;;;;;;4953902;28;20039;-59
2024/01/30 09:29:22;;;;;;;9.88;5.85;;;;;;;;;;4954392;28;20035;-58
2024/01/30 09:31:48;;;;;;;14.90;8.07;;;;;;;;;;4955798;28;20034;-57
2024/01/30 09:34:14;;;;;;;13.10;7.50;;;;;;;;;;4955963;28;20043;-57
2024/01/30 09:36:40;;;;;;;8.68;4.82;;;;;;;;;;4950494;28;20531;-58
2024/01/30 09:39:07;;;;;;;9.98;5.57;;;;;;;;;;4952418;28;20047;-59
2024/01/30 09:41:52;;;;;;;13.50;6.63;;;;;;;;;;4951906;28;20514;-60
2024/01/30 09:44:20;;;;;;;14.93;6.78;;;;;;;;;;4946406;28;20494;-59
2024/01/30 09:46:50;;;;;;;26.20;10.63;;;;;;;;;;4952606;28;20503;-58
2024/01/30 09:49:18;;;;;;;24.23;10.27;;;;;;;;;;4956345;28;20062;-59
2024/01/30 09:51:45;;;;;;;19.52;9.85;;;;;;;;;;4955188;28;20039;-59
2024/01/30 09:54:13;;;;;;;21.35;10.15;;;;;;;;;;4955348;28;20127;-58
2024/01/30 09:56:40;;;;;;;20.70;10.80;;;;;;;;;;4950494;28;20047;-59
2024/01/30 09:59:06;;;;;;;35.30;14.52;;;;;;;;;;4949802;28;20055;-59
2024/01/30 10:01:34;;;;;;;33.15;16.02;;;;;;;;;;4946401;28;20407;-58
2024/01/30 10:04:00;;;;;;;28.17;15.45;;;;;;;;;;4950844;28;20065;-59
2024/01/30 10:06:27;;;;;;;12.90;7.47;;;;;;;;;;4948965;28;20045;-58
2024/01/30 10:08:54;;;;;;;12.40;6.60;;;;;;;;;;4948944;28;20529;-59
2024/01/30 10:11:20;;;;;;;16.30;7.75;;;;;;;;;;4946989;28;20039;-58
2024/01/30 10:13:46;;;;;;;25.52;11.77;;;;;;;;;;4951641;28;20035;-58
2024/01/30 10:16:15;;;;;;;31.75;14.32;;;;;;;;;;4953368;28;20067;-60
2024/01/30 10:18:41;;;;;;;38.20;18.17;;;;;;;;;;4953667;28;20051;-59
2024/01/30 10:21:08;;;;;;;36.92;19.00;;;;;;;;;;4953299;28;20415;-59
2024/01/30 10:23:35;;;;;;;38.15;18.48;;;;;;;;;;4956325;28;20421;-58
2024/01/30 10:26:04;;;;;;;40.20;18.27;;;;;;;;;;4952002;28;20051;-59
2024/01/30 10:28:30;;;;;;;34.70;17.02;;;;;;;;;;4952353;28;20058;-59
2024/01/30 10:31:05;;;;;;;31.55;16.15;;;;;;;;;;4954809;28;20051;-59
2024/01/30 10:33:32;;;;;;;36.00;15.10;;;;;;;;;;4948546;28;20047;-58
2024/01/30 10:36:02;;;;;;;36.83;15.60;;;;;;;;;;4956827;28;20055;-62
2024/01/30 10:38:29;;;;;;;31.50;14.43;;;;;;;;;;4952427;28;20109;-59
2024/01/30 10:40:59;;;;;;;36.58;15.55;;;;;;;;;;4949644;28;20050;-59
2024/01/30 10:43:35;;;;;;;29.13;16.40;;;;;;;;;;4957606;28;20068;-59
2024/01/30 10:46:22;;;;;;;36.95;18.35;;;;;;;;;;4956452;28;20043;-59
2024/01/30 10:48:56;;;;;;;33.88;18.05;;;;;;;;;;4950461;28;20043;-59
2024/01/30 10:51:22;;;;;;;41.15;19.20;;;;;;;;;;4957008;28;20038;-58
2024/01/30 10:53:49;;;;;;;39.08;19.08;;;;;;;;;;4949401;28;20043;-60
2024/01/30 10:56:16;;;;;;;39.25;18.65;;;;;;;;;;4951114;28;20058;-60
2024/01/30 10:58:42;;;;;;;41.55;20.10;;;;;;;;;;4950577;28;20054;-60
2024/01/30 11:01:09;;;;;;;41.90;20.88;;;;;;;;;;4950157;28;20522;-60
2024/01/30 11:03:36;;;;;;;41.80;17.42;;;;;;;;;;4952609;28;20091;-58
2024/01/30 11:06:02;;;;;;;34.97;16.50;;;;;;;;;;4950328;28;20503;-59
2024/01/30 11:08:32;;;;;;;37.03;17.83;;;;;;;;;;4950102;28;20054;-59
2024/01/30 11:10:58;;;;;;;33.95;17.73;;;;;;;;;;4950738;28;20047;-59
2024/01/30 11:13:29;;;;;;;39.78;19.73;;;;;;;;;;4950908;28;20058;-59
2024/01/30 11:15:55;;;;;;;45.55;21.67;;;;;;;;;;4952367;28;20058;-60
2024/01/30 11:18:40;;;;;;;52.45;26.25;;;;;;;;;;4953933;28;20047;-59
2024/01/30 11:21:06;;;;;;;63.47;31.33;;;;;;;;;;4947624;28;20043;-58
2024/01/30 11:23:34;;;;;;;41.25;20.67;;;;;;;;;;4952524;28;20035;-59
2024/01/30 11:26:00;;;;;;;33.70;16.45;;;;;;;;;;4951095;28;20046;-59
2024/01/30 11:28:34;;;;;;;9.93;4.10;;;;;;;;;;4955876;28;20039;-59
2024/01/30 11:31:04;;;;;;;28.58;15.73;;;;;;;;;;4949258;28;20059;-58
2024/01/30 11:33:31;;;;;;;10.27;4.00;;;;;;;;;;4948646;28;20528;-60
2024/01/30 11:36:01;;;;;;;4.57;2.58;;;;;;;;;;4952642;28;20043;-59
2024/01/30 11:38:28;;;;;;;5.10;2.67;;;;;;;;;;4950448;28;20039;-59
2024/01/30 11:40:55;;;;;;;5.63;2.50;;;;;;;;;;4945173;28;20051;-59
2024/01/30 11:43:22;;;;;;;3.85;2.50;;;;;;;;;;4950115;28;20533;-60
2024/01/30 11:45:48;;;;;;;5.10;2.83;;;;;;;;;;4951018;28;20043;-59
2024/01/30 11:48:14;;;;;;;7.55;2.83;;;;;;;;;;4951956;29;20035;-59
2024/01/30 11:50:41;;;;;;;7.32;3.53;;;;;;;;;;4948720;29;20046;-58
2024/01/30 11:53:07;;;;;;;9.80;4.03;;;;;;;;;;4950049;28;20051;-59
2024/01/30 11:55:35;;;;;;;8.20;4.20;;;;;;;;;;4948346;29;20035;-59
2024/01/30 11:58:02;;;;;;;7.57;3.50;;;;;;;;;;4949398;28;20051;-58
2024/01/30 12:00:30;;;;;;;5.40;3.00;;;;;;;;;;4950163;28;20051;-59
2024/01/30 12:02:56;;;;;;;7.53;2.90;;;;;;;;;;4951575;29;20046;-59
2024/01/30 12:05:23;;;;;;;6.22;2.83;;;;;;;;;;4947921;29;20047;-58
2024/01/30 12:07:50;;;;;;;4.60;2.83;;;;;;;;;;4948669;29;20039;-59
2024/01/30 12:10:17;;;;;;;5.05;3.25;;;;;;;;;;4950448;28;20404;-59
2024/01/30 12:12:46;;;;;;;5.78;3.00;;;;;;;;;;4950979;29;20028;-58
2024/01/30 12:15:13;;;;;;;6.03;3.08;;;;;;;;;;4951372;28;20054;-59
2024/01/30 12:17:40;;;;;;;10.13;3.08;;;;;;;;;;4947890;28;20039;-59
2024/01/30 12:20:14;;;;;;;3.58;3.00;;;;;;;;;;4943075;29;20411;-59
2024/01/30 12:22:45;;;;;;;5.70;2.70;;;;;;;;;;4945884;28;20059;-59
2024/01/30 12:25:23;;;;;;;6.20;3.60;;;;;;;;;;4949756;29;20058;-58
2024/01/30 12:27:50;;;;;;;6.50;3.80;;;;;;;;;;4949682;28;20047;-58
2024/01/30 12:30:18;;;;;;;6.38;3.30;;;;;;;;;;4951524;28;20078;-58
2024/01/30 12:32:47;;;;;;;5.43;3.15;;;;;;;;;;4949816;29;20038;-59
2024/01/30 12:35:17;;;;;;;5.30;3.05;;;;;;;;;;4949555;28;20422;-59
2024/01/30 12:37:45;;;;;;;6.60;3.42;;;;;;;;;;4950834;28;20051;-59
2024/01/30 12:40:14;;;;;;;5.07;2.92;;;;;;;;;;4950121;28;20054;-58
2024/01/30 12:42:42;;;;;;;5.53;3.10;;;;;;;;;;4950003;29;20062;-58
2024/01/30 12:45:09;;;;;;;6.05;3.00;;;;;;;;;;4950042;28;20050;-59
2024/01/30 12:47:35;;;;;;;7.28;2.90;;;;;;;;;;4950239;28;20039;-59
2024/01/30 12:50:01;;;;;;;7.55;3.50;;;;;;;;;;4948008;28;20039;-59
2024/01/30 12:52:28;;;;;;;10.05;3.55;;;;;;;;;;4949877;29;20518;-60
2024/01/30 12:54:55;;;;;;;9.30;2.85;;;;;;;;;;4949460;28;20415;-59
2024/01/30 12:57:21;;;;;;;5.25;3.17;;;;;;;;;;4950516;28;20043;-59
2024/01/30 12:59:47;;;;;;;6.40;3.42;;;;;;;;;;4954203;29;20042;-59
2024/01/30 13:02:14;;;;;;;14.05;4.50;;;;;;;;;;4950601;28;20447;-61
2024/01/30 13:04:41;;;;;;;10.02;4.10;;;;;;;;;;4945662;28;20074;-58
2024/01/30 13:07:07;;;;;;;9.00;4.25;;;;;;;;;;4946255;28;20043;-60
2024/01/30 13:09:33;;;;;;;8.40;3.60;;;;;;;;;;4953115;28;20039;-60
2024/01/30 13:12:02;;;;;;;7.63;3.72;;;;;;;;;;4951685;29;20047;-59
2024/01/30 13:14:28;;;;;;;13.32;4.30;;;;;;;;;;4952660;29;20047;-60
2024/01/30 13:16:54;;;;;;;9.02;3.67;;;;;;;;;;4947293;28;20404;-60
2024/01/30 13:19:20;;;;;;;7.25;4.05;;;;;;;;;;4952215;28;20043;-58
2024/01/30 13:21:47;;;;;;;5.57;3.83;;;;;;;;;;4950985;28;20055;-60
2024/01/30 13:24:14;;;;;;;6.25;3.13;;;;;;;;;;4951959;28;20058;-60
2024/01/30 13:26:42;;;;;;;10.13;3.63;;;;;;;;;;4952301;28;20517;-59
2024/01/30 13:29:08;;;;;;;12.32;3.95;;;;;;;;;;4954496;28;20058;-60
2024/01/30 13:31:35;;;;;;;12.32;4.05;;;;;;;;;;4946592;28;20051;-60
2024/01/30 13:34:01;;;;;;;7.97;4.05;;;;;;;;;;4952269;28;20054;-60
2024/01/30 13:36:27;;;;;;;5.68;3.70;;;;;;;;;;4952996;28;20051;-60
2024/01/30 13:38:54;;;;;;;7.05;3.97;;;;;;;;;;4950446;29;20587;-59
2024/01/30 13:41:21;;;;;;;10.18;4.28;;;;;;;;;;4953398;29;20442;-59
2024/01/30 13:43:47;;;;;;;6.57;4.05;;;;;;;;;;4950548;29;20066;-59
2024/01/30 13:46:13;;;;;;;9.25;4.40;;;;;;;;;;4953175;28;20054;-60
2024/01/30 13:48:39;;;;;;;6.47;3.83;;;;;;;;;;4952698;29;20051;-60
2024/01/30 13:51:06;;;;;;;9.77;3.72;;;;;;;;;;4951040;28;20047;-60
2024/01/30 13:53:32;;;;;;;9.68;4.38;;;;;;;;;;4948608;29;20060;-59
2024/01/30 13:55:58;;;;;;;9.10;3.90;;;;;;;;;;4951418;28;20058;-60
2024/01/30 13:58:24;;;;;;;7.80;3.92;;;;;;;;;;4945707;28;20047;-61
2024/01/30 14:00:50;;;;;;;13.02;5.80;;;;;;;;;;4945068;28;20050;-60
2024/01/30 14:03:16;;;;;;;25.77;9.07;;;;;;;;;;4947679;28;20051;-60
2024/01/30 14:05:43;;;;;;;26.88;8.77;;;;;;;;;;4949631;28;20058;-59
2024/01/30 14:08:10;;;;;;;21.20;7.97;;;;;;;;;;4951255;29;20045;-60
2024/01/30 14:10:36;;;;;;;10.85;5.25;;;;;;;;;;4953044;28;20544;-60
2024/01/30 14:13:02;;;;;;;6.45;4.10;;;;;;;;;;4953249;28;20047;-59
2024/01/30 14:15:28;;;;;;;13.77;5.07;;;;;;;;;;4949338;29;20062;-60
2024/01/30 14:17:55;;;;;;;13.73;5.40;;;;;;;;;;4947868;28;20035;-60
2024/01/30 14:20:21;;;;;;;6.70;3.67;;;;;;;;;;4946016;28;20051;-60
2024/01/30 14:22:47;;;;;;;9.80;3.65;;;;;;;;;;4951649;29;20031;-60
2024/01/30 14:25:13;;;;;;;6.18;3.80;;;;;;;;;;4948057;29;20042;-59
2024/01/30 14:27:39;;;;;;;5.95;3.50;;;;;;;;;;4949404;29;20050;-61
2024/01/30 14:30:07;;;;;;;7.00;3.88;;;;;;;;;;4945486;29;20050;-60